sensor_id;sensor_type;location;lat;lon;timestamp;P1;durP1;ratioP1;P2;durP2;ratioP2
10056;SDS011;5068;51.286;7.518;2023-01-23T00:00:55;11.77;;;6.05;;
10056;SDS011;5068;51.286;7.518;2023-01-23T00:04:03;11.00;;;5.95;;
10056;SDS011;5068;51.286;7.518;2023-01-23T00:05:37;11.60;;;6.75;;
10056;SDS011;5068;51.286;7.518;2023-01-23T00:07:09;13.95;;;6.97;;
10056;SDS011;5068;51.286;7.518;2023-01-23T00:08:43;11.27;;;6.55;;
10056;SDS011;5068;51.286;7.518;2023-01-23T00:10:18;12.38;;;6.60;;
10056;SDS011;5068;51.286;7.518;2023-01-23T00:11:53;11.85;;;6.47;;
10056;SDS011;5068;51.286;7.518;2023-01-23T00:13:26;12.43;;;6.25;;
10056;SDS011;5068;51.286;7.518;2023-01-23T00:14:59;13.02;;;6.88;;
10056;SDS011;5068;51.286;7.518;2023-01-23T00:16:33;13.25;;;7.10;;
10056;SDS011;5068;51.286;7.518;2023-01-23T00:18:07;12.10;;;6.53;;
10056;SDS011;5068;51.286;7.518;2023-01-23T00:19:41;10.73;;;6.20;;
10056;SDS011;5068;51.286;7.518;2023-01-23T00:21:15;13.20;;;6.70;;
10056;SDS011;5068;51.286;7.518;2023-01-23T00:22:51;11.30;;;6.75;;
10056;SDS011;5068;51.286;7.518;2023-01-23T00:24:24;12.32;;;6.63;;
10056;SDS011;5068;51.286;7.518;2023-01-23T00:26:00;11.48;;;6.40;;
10056;SDS011;5068;51.286;7.518;2023-01-23T00:27:36;11.68;;;6.47;;
10056;SDS011;5068;51.286;7.518;2023-01-23T00:29:09;13.10;;;6.95;;
10056;SDS011;5068;51.286;7.518;2023-01-23T00:30:42;12.63;;;6.93;;
10056;SDS011;5068;51.286;7.518;2023-01-23T00:32:14;11.68;;;6.40;;
10056;SDS011;5068;51.286;7.518;2023-01-23T00:33:51;12.98;;;6.93;;
10056;SDS011;5068;51.286;7.518;2023-01-23T00:35:26;13.00;;;7.18;;
10056;SDS011;5068;51.286;7.518;2023-01-23T00:36:59;12.68;;;6.38;;
10056;SDS011;5068;51.286;7.518;2023-01-23T00:38:32;13.07;;;6.80;;
10056;SDS011;5068;51.286;7.518;2023-01-23T00:40:07;10.90;;;6.35;;
10056;SDS011;5068;51.286;7.518;2023-01-23T00:41:41;11.80;;;6.20;;
10056;SDS011;5068;51.286;7.518;2023-01-23T00:43:16;11.63;;;6.10;;
10056;SDS011;5068;51.286;7.518;2023-01-23T00:44:49;11.63;;;6.78;;
10056;SDS011;5068;51.286;7.518;2023-01-23T00:46:22;13.35;;;7.13;;
10056;SDS011;5068;51.286;7.518;2023-01-23T00:47:56;12.65;;;6.63;;
10056;SDS011;5068;51.286;7.518;2023-01-23T00:49:29;10.40;;;5.57;;
10056;SDS011;5068;51.286;7.518;2023-01-23T00:51:02;12.48;;;6.55;;
10056;SDS011;5068;51.286;7.518;2023-01-23T00:52:36;12.13;;;6.75;;
10056;SDS011;5068;51.286;7.518;2023-01-23T00:54:09;12.45;;;7.07;;
10056;SDS011;5068;51.286;7.518;2023-01-23T00:55:43;12.18;;;6.07;;
10056;SDS011;5068;51.286;7.518;2023-01-23T00:57:16;13.25;;;7.00;;
10056;SDS011;5068;51.286;7.518;2023-01-23T00:58:51;15.15;;;7.25;;
10056;SDS011;5068;51.286;7.518;2023-01-23T01:00:24;13.57;;;7.38;;
10056;SDS011;5068;51.286;7.518;2023-01-23T01:01:57;12.82;;;6.65;;
10056;SDS011;5068;51.286;7.518;2023-01-23T01:03:31;15.25;;;6.85;;
10056;SDS011;5068;51.286;7.518;2023-01-23T01:05:06;14.70;;;7.03;;
10056;SDS011;5068;51.286;7.518;2023-01-23T01:06:40;14.95;;;7.30;;
10056;SDS011;5068;51.286;7.518;2023-01-23T01:08:13;14.52;;;7.57;;
10056;SDS011;5068;51.286;7.518;2023-01-23T01:09:47;16.33;;;7.50;;
10056;SDS011;5068;51.286;7.518;2023-01-23T01:11:20;14.27;;;7.85;;
10056;SDS011;5068;51.286;7.518;2023-01-23T01:12:53;14.77;;;7.45;;
10056;SDS011;5068;51.286;7.518;2023-01-23T01:14:27;14.25;;;7.63;;
10056;SDS011;5068;51.286;7.518;2023-01-23T01:16:00;12.95;;;6.78;;
10056;SDS011;5068;51.286;7.518;2023-01-23T01:17:34;15.98;;;8.15;;
10056;SDS011;5068;51.286;7.518;2023-01-23T01:19:08;13.77;;;7.55;;
10056;SDS011;5068;51.286;7.518;2023-01-23T01:20:41;14.57;;;7.90;;
10056;SDS011;5068;51.286;7.518;2023-01-23T01:22:14;15.20;;;8.07;;
10056;SDS011;5068;51.286;7.518;2023-01-23T01:23:48;14.77;;;7.60;;
10056;SDS011;5068;51.286;7.518;2023-01-23T01:25:21;14.77;;;7.88;;
10056;SDS011;5068;51.286;7.518;2023-01-23T01:26:57;14.57;;;7.38;;
10056;SDS011;5068;51.286;7.518;2023-01-23T01:28:31;14.15;;;7.72;;
10056;SDS011;5068;51.286;7.518;2023-01-23T01:31:42;13.45;;;7.43;;
10056;SDS011;5068;51.286;7.518;2023-01-23T01:33:16;13.20;;;7.47;;
10056;SDS011;5068;51.286;7.518;2023-01-23T01:34:49;12.38;;;7.78;;
10056;SDS011;5068;51.286;7.518;2023-01-23T01:36:23;12.10;;;7.10;;
10056;SDS011;5068;51.286;7.518;2023-01-23T01:37:57;14.15;;;7.45;;
10056;SDS011;5068;51.286;7.518;2023-01-23T01:39:29;13.75;;;7.13;;
10056;SDS011;5068;51.286;7.518;2023-01-23T01:41:03;14.73;;;7.85;;
10056;SDS011;5068;51.286;7.518;2023-01-23T01:42:38;13.75;;;7.40;;
10056;SDS011;5068;51.286;7.518;2023-01-23T01:44:14;13.75;;;7.32;;
10056;SDS011;5068;51.286;7.518;2023-01-23T01:45:57;14.35;;;7.60;;
10056;SDS011;5068;51.286;7.518;2023-01-23T01:47:45;13.90;;;7.85;;
10056;SDS011;5068;51.286;7.518;2023-01-23T01:49:19;12.82;;;7.45;;
10056;SDS011;5068;51.286;7.518;2023-01-23T01:50:57;13.75;;;7.80;;
10056;SDS011;5068;51.286;7.518;2023-01-23T01:52:32;15.02;;;8.35;;
10056;SDS011;5068;51.286;7.518;2023-01-23T01:54:08;15.00;;;7.50;;
10056;SDS011;5068;51.286;7.518;2023-01-23T01:55:48;14.10;;;8.25;;
10056;SDS011;5068;51.286;7.518;2023-01-23T01:57:22;15.23;;;8.48;;
10056;SDS011;5068;51.286;7.518;2023-01-23T01:59:00;16.40;;;8.75;;
10056;SDS011;5068;51.286;7.518;2023-01-23T02:00:34;15.43;;;8.63;;
10056;SDS011;5068;51.286;7.518;2023-01-23T02:02:10;14.13;;;8.20;;
10056;SDS011;5068;51.286;7.518;2023-01-23T02:03:51;13.73;;;7.80;;
10056;SDS011;5068;51.286;7.518;2023-01-23T02:05:26;16.45;;;8.52;;
10056;SDS011;5068;51.286;7.518;2023-01-23T02:07:06;12.65;;;7.43;;
10056;SDS011;5068;51.286;7.518;2023-01-23T02:08:48;12.60;;;7.55;;
10056;SDS011;5068;51.286;7.518;2023-01-23T02:10:28;12.60;;;7.63;;
10056;SDS011;5068;51.286;7.518;2023-01-23T02:12:04;13.90;;;7.68;;
10056;SDS011;5068;51.286;7.518;2023-01-23T02:13:38;14.68;;;7.50;;
10056;SDS011;5068;51.286;7.518;2023-01-23T02:15:13;13.07;;;7.53;;
10056;SDS011;5068;51.286;7.518;2023-01-23T02:16:48;14.98;;;8.38;;
10056;SDS011;5068;51.286;7.518;2023-01-23T02:18:24;13.50;;;7.65;;
10056;SDS011;5068;51.286;7.518;2023-01-23T02:20:02;13.32;;;7.47;;
10056;SDS011;5068;51.286;7.518;2023-01-23T02:21:45;12.63;;;7.32;;
10056;SDS011;5068;51.286;7.518;2023-01-23T02:23:28;14.55;;;8.25;;
10056;SDS011;5068;51.286;7.518;2023-01-23T02:25:25;13.25;;;7.25;;
10056;SDS011;5068;51.286;7.518;2023-01-23T02:27:10;13.90;;;8.30;;
10056;SDS011;5068;51.286;7.518;2023-01-23T02:28:45;13.48;;;7.47;;
10056;SDS011;5068;51.286;7.518;2023-01-23T02:30:24;14.40;;;7.88;;
10056;SDS011;5068;51.286;7.518;2023-01-23T02:31:59;12.77;;;7.75;;
10056;SDS011;5068;51.286;7.518;2023-01-23T02:33:45;14.63;;;8.30;;
10056;SDS011;5068;51.286;7.518;2023-01-23T02:35:23;15.90;;;7.68;;
10056;SDS011;5068;51.286;7.518;2023-01-23T02:37:08;13.02;;;7.72;;
10056;SDS011;5068;51.286;7.518;2023-01-23T02:38:44;13.60;;;7.38;;
10056;SDS011;5068;51.286;7.518;2023-01-23T02:40:34;14.68;;;7.75;;
10056;SDS011;5068;51.286;7.518;2023-01-23T02:42:14;13.25;;;7.20;;
10056;SDS011;5068;51.286;7.518;2023-01-23T02:43:51;12.45;;;7.15;;
10056;SDS011;5068;51.286;7.518;2023-01-23T02:45:28;15.50;;;8.40;;
10056;SDS011;5068;51.286;7.518;2023-01-23T02:47:02;12.73;;;7.60;;
10056;SDS011;5068;51.286;7.518;2023-01-23T02:48:42;14.15;;;7.38;;
10056;SDS011;5068;51.286;7.518;2023-01-23T02:50:15;14.13;;;7.30;;
10056;SDS011;5068;51.286;7.518;2023-01-23T02:51:49;13.35;;;7.28;;
10056;SDS011;5068;51.286;7.518;2023-01-23T02:53:24;13.00;;;6.88;;
10056;SDS011;5068;51.286;7.518;2023-01-23T02:54:57;13.55;;;7.55;;
10056;SDS011;5068;51.286;7.518;2023-01-23T02:56:31;14.40;;;8.00;;
10056;SDS011;5068;51.286;7.518;2023-01-23T02:58:06;12.52;;;7.10;;
10056;SDS011;5068;51.286;7.518;2023-01-23T02:59:54;12.45;;;6.72;;
10056;SDS011;5068;51.286;7.518;2023-01-23T03:01:44;13.18;;;7.25;;
10056;SDS011;5068;51.286;7.518;2023-01-23T03:03:18;11.23;;;6.65;;
10056;SDS011;5068;51.286;7.518;2023-01-23T03:04:51;12.68;;;7.53;;
10056;SDS011;5068;51.286;7.518;2023-01-23T03:06:24;12.05;;;7.15;;
10056;SDS011;5068;51.286;7.518;2023-01-23T03:07:57;12.10;;;6.55;;
10056;SDS011;5068;51.286;7.518;2023-01-23T03:09:31;11.90;;;6.80;;
10056;SDS011;5068;51.286;7.518;2023-01-23T03:11:04;12.20;;;7.30;;
10056;SDS011;5068;51.286;7.518;2023-01-23T03:12:36;12.43;;;6.80;;
10056;SDS011;5068;51.286;7.518;2023-01-23T03:14:15;11.93;;;7.43;;
10056;SDS011;5068;51.286;7.518;2023-01-23T03:15:51;14.48;;;7.88;;
10056;SDS011;5068;51.286;7.518;2023-01-23T03:17:23;11.13;;;6.57;;
10056;SDS011;5068;51.286;7.518;2023-01-23T03:18:57;11.65;;;6.70;;
10056;SDS011;5068;51.286;7.518;2023-01-23T03:20:37;11.15;;;6.43;;
10056;SDS011;5068;51.286;7.518;2023-01-23T03:22:11;11.13;;;6.13;;
10056;SDS011;5068;51.286;7.518;2023-01-23T03:23:45;11.85;;;6.85;;
10056;SDS011;5068;51.286;7.518;2023-01-23T03:25:18;11.20;;;7.32;;
10056;SDS011;5068;51.286;7.518;2023-01-23T03:26:52;10.48;;;6.32;;
10056;SDS011;5068;51.286;7.518;2023-01-23T03:28:28;10.95;;;6.43;;
10056;SDS011;5068;51.286;7.518;2023-01-23T03:30:23;12.13;;;6.78;;
10056;SDS011;5068;51.286;7.518;2023-01-23T03:31:56;11.05;;;6.40;;
10056;SDS011;5068;51.286;7.518;2023-01-23T03:33:29;11.18;;;6.55;;
10056;SDS011;5068;51.286;7.518;2023-01-23T03:35:03;11.80;;;6.55;;
10056;SDS011;5068;51.286;7.518;2023-01-23T03:36:37;10.57;;;6.50;;
10056;SDS011;5068;51.286;7.518;2023-01-23T03:38:11;11.80;;;6.45;;
10056;SDS011;5068;51.286;7.518;2023-01-23T03:39:48;12.45;;;7.40;;
10056;SDS011;5068;51.286;7.518;2023-01-23T03:41:39;10.95;;;6.10;;
10056;SDS011;5068;51.286;7.518;2023-01-23T03:43:12;11.57;;;6.90;;
10056;SDS011;5068;51.286;7.518;2023-01-23T03:44:51;13.68;;;6.68;;
10056;SDS011;5068;51.286;7.518;2023-01-23T03:46:29;12.20;;;6.35;;
10056;SDS011;5068;51.286;7.518;2023-01-23T03:48:02;11.60;;;6.30;;
10056;SDS011;5068;51.286;7.518;2023-01-23T03:49:37;11.38;;;7.25;;
10056;SDS011;5068;51.286;7.518;2023-01-23T03:51:11;12.00;;;7.13;;
10056;SDS011;5068;51.286;7.518;2023-01-23T03:52:44;13.38;;;7.05;;
10056;SDS011;5068;51.286;7.518;2023-01-23T03:54:17;12.38;;;6.32;;
10056;SDS011;5068;51.286;7.518;2023-01-23T03:55:50;11.82;;;6.43;;
10056;SDS011;5068;51.286;7.518;2023-01-23T03:57:24;12.20;;;6.60;;
10056;SDS011;5068;51.286;7.518;2023-01-23T03:59:06;12.55;;;6.63;;
10056;SDS011;5068;51.286;7.518;2023-01-23T04:00:40;11.15;;;7.15;;
10056;SDS011;5068;51.286;7.518;2023-01-23T04:02:15;9.77;;;6.15;;
10056;SDS011;5068;51.286;7.518;2023-01-23T04:03:48;12.20;;;6.40;;
10056;SDS011;5068;51.286;7.518;2023-01-23T04:05:22;11.10;;;6.25;;
10056;SDS011;5068;51.286;7.518;2023-01-23T04:06:55;10.52;;;6.07;;
10056;SDS011;5068;51.286;7.518;2023-01-23T04:08:31;10.07;;;5.75;;
10056;SDS011;5068;51.286;7.518;2023-01-23T04:10:05;10.90;;;6.28;;
10056;SDS011;5068;51.286;7.518;2023-01-23T04:11:42;9.63;;;5.70;;
10056;SDS011;5068;51.286;7.518;2023-01-23T04:13:16;10.43;;;5.97;;
10056;SDS011;5068;51.286;7.518;2023-01-23T04:14:48;9.13;;;5.78;;
10056;SDS011;5068;51.286;7.518;2023-01-23T04:16:22;10.70;;;6.30;;
10056;SDS011;5068;51.286;7.518;2023-01-23T04:17:56;11.30;;;5.85;;
10056;SDS011;5068;51.286;7.518;2023-01-23T04:19:31;9.88;;;5.20;;
10056;SDS011;5068;51.286;7.518;2023-01-23T04:21:06;8.45;;;5.20;;
10056;SDS011;5068;51.286;7.518;2023-01-23T04:22:39;8.70;;;5.55;;
10056;SDS011;5068;51.286;7.518;2023-01-23T04:24:11;8.45;;;4.88;;
10056;SDS011;5068;51.286;7.518;2023-01-23T04:25:44;10.60;;;5.93;;
10056;SDS011;5068;51.286;7.518;2023-01-23T04:27:19;8.98;;;5.50;;
10056;SDS011;5068;51.286;7.518;2023-01-23T04:28:53;9.30;;;5.00;;
10056;SDS011;5068;51.286;7.518;2023-01-23T04:30:26;8.57;;;4.75;;
10056;SDS011;5068;51.286;7.518;2023-01-23T04:32:01;7.63;;;4.57;;
10056;SDS011;5068;51.286;7.518;2023-01-23T04:33:40;9.63;;;5.25;;
10056;SDS011;5068;51.286;7.518;2023-01-23T04:35:13;8.38;;;4.63;;
10056;SDS011;5068;51.286;7.518;2023-01-23T04:36:48;9.27;;;5.28;;
10056;SDS011;5068;51.286;7.518;2023-01-23T04:38:22;8.45;;;5.22;;
10056;SDS011;5068;51.286;7.518;2023-01-23T04:39:56;10.35;;;5.78;;
10056;SDS011;5068;51.286;7.518;2023-01-23T04:41:29;7.50;;;4.55;;
10056;SDS011;5068;51.286;7.518;2023-01-23T04:43:08;7.90;;;4.60;;
10056;SDS011;5068;51.286;7.518;2023-01-23T04:44:47;8.35;;;4.80;;
10056;SDS011;5068;51.286;7.518;2023-01-23T04:46:39;7.38;;;4.30;;
10056;SDS011;5068;51.286;7.518;2023-01-23T04:48:17;7.82;;;4.60;;
10056;SDS011;5068;51.286;7.518;2023-01-23T04:49:52;8.98;;;5.05;;
10056;SDS011;5068;51.286;7.518;2023-01-23T04:51:25;8.20;;;5.18;;
10056;SDS011;5068;51.286;7.518;2023-01-23T04:52:58;7.55;;;4.28;;
10056;SDS011;5068;51.286;7.518;2023-01-23T04:54:31;8.95;;;5.00;;
10056;SDS011;5068;51.286;7.518;2023-01-23T04:56:05;8.15;;;4.82;;
10056;SDS011;5068;51.286;7.518;2023-01-23T04:57:38;7.90;;;4.70;;
10056;SDS011;5068;51.286;7.518;2023-01-23T04:59:18;7.90;;;4.70;;
10056;SDS011;5068;51.286;7.518;2023-01-23T05:00:52;8.18;;;4.95;;
10056;SDS011;5068;51.286;7.518;2023-01-23T05:02:31;6.85;;;4.47;;
10056;SDS011;5068;51.286;7.518;2023-01-23T05:04:05;7.28;;;4.32;;
10056;SDS011;5068;51.286;7.518;2023-01-23T05:05:40;7.72;;;4.25;;
10056;SDS011;5068;51.286;7.518;2023-01-23T05:07:14;7.55;;;4.63;;
10056;SDS011;5068;51.286;7.518;2023-01-23T05:09:01;6.75;;;3.80;;
10056;SDS011;5068;51.286;7.518;2023-01-23T05:10:42;7.90;;;4.10;;
10056;SDS011;5068;51.286;7.518;2023-01-23T05:12:17;5.38;;;3.40;;
10056;SDS011;5068;51.286;7.518;2023-01-23T05:13:50;6.35;;;3.63;;
10056;SDS011;5068;51.286;7.518;2023-01-23T05:15:24;6.30;;;3.83;;
10056;SDS011;5068;51.286;7.518;2023-01-23T05:17:01;6.28;;;4.00;;
10056;SDS011;5068;51.286;7.518;2023-01-23T05:18:39;7.13;;;4.35;;
10056;SDS011;5068;51.286;7.518;2023-01-23T05:20:12;8.27;;;4.93;;
10056;SDS011;5068;51.286;7.518;2023-01-23T05:21:48;8.52;;;5.10;;
10056;SDS011;5068;51.286;7.518;2023-01-23T05:23:24;8.93;;;5.35;;
10056;SDS011;5068;51.286;7.518;2023-01-23T05:24:58;8.82;;;5.05;;
10056;SDS011;5068;51.286;7.518;2023-01-23T05:26:33;8.07;;;4.97;;
10056;SDS011;5068;51.286;7.518;2023-01-23T05:28:07;8.40;;;5.38;;
10056;SDS011;5068;51.286;7.518;2023-01-23T05:29:47;10.52;;;4.90;;
10056;SDS011;5068;51.286;7.518;2023-01-23T05:31:25;10.98;;;5.65;;
10056;SDS011;5068;51.286;7.518;2023-01-23T05:33:18;10.38;;;6.15;;
10056;SDS011;5068;51.286;7.518;2023-01-23T05:34:52;11.60;;;6.35;;
10056;SDS011;5068;51.286;7.518;2023-01-23T05:36:29;11.27;;;6.22;;
10056;SDS011;5068;51.286;7.518;2023-01-23T05:38:04;9.95;;;5.80;;
10056;SDS011;5068;51.286;7.518;2023-01-23T05:39:37;11.05;;;6.72;;
10056;SDS011;5068;51.286;7.518;2023-01-23T05:41:11;10.60;;;5.68;;
10056;SDS011;5068;51.286;7.518;2023-01-23T05:43:04;10.38;;;5.75;;
10056;SDS011;5068;51.286;7.518;2023-01-23T05:44:58;9.40;;;5.43;;
10056;SDS011;5068;51.286;7.518;2023-01-23T05:46:41;11.45;;;6.45;;
10056;SDS011;5068;51.286;7.518;2023-01-23T05:48:14;10.57;;;5.85;;
10056;SDS011;5068;51.286;7.518;2023-01-23T05:49:47;11.00;;;5.45;;
10056;SDS011;5068;51.286;7.518;2023-01-23T05:51:20;11.30;;;6.47;;
10056;SDS011;5068;51.286;7.518;2023-01-23T05:53:04;12.43;;;6.30;;
10056;SDS011;5068;51.286;7.518;2023-01-23T05:54:39;11.02;;;6.25;;
10056;SDS011;5068;51.286;7.518;2023-01-23T05:56:13;10.15;;;5.82;;
10056;SDS011;5068;51.286;7.518;2023-01-23T05:58:06;9.88;;;5.80;;
10056;SDS011;5068;51.286;7.518;2023-01-23T05:59:59;11.93;;;6.28;;
10056;SDS011;5068;51.286;7.518;2023-01-23T06:01:59;10.93;;;6.20;;
10056;SDS011;5068;51.286;7.518;2023-01-23T06:03:52;11.13;;;5.95;;
10056;SDS011;5068;51.286;7.518;2023-01-23T06:05:36;9.18;;;6.03;;
10056;SDS011;5068;51.286;7.518;2023-01-23T06:07:19;8.93;;;5.53;;
10056;SDS011;5068;51.286;7.518;2023-01-23T06:08:57;10.52;;;5.97;;
10056;SDS011;5068;51.286;7.518;2023-01-23T06:12:04;10.63;;;6.03;;
10056;SDS011;5068;51.286;7.518;2023-01-23T06:13:38;11.82;;;6.90;;
10056;SDS011;5068;51.286;7.518;2023-01-23T06:15:11;12.13;;;6.75;;
10056;SDS011;5068;51.286;7.518;2023-01-23T06:16:45;12.55;;;6.85;;
10056;SDS011;5068;51.286;7.518;2023-01-23T06:18:19;11.45;;;6.60;;
10056;SDS011;5068;51.286;7.518;2023-01-23T06:19:53;10.90;;;6.05;;
10056;SDS011;5068;51.286;7.518;2023-01-23T06:21:26;10.63;;;6.18;;
10056;SDS011;5068;51.286;7.518;2023-01-23T06:23:00;10.60;;;5.70;;
10056;SDS011;5068;51.286;7.518;2023-01-23T06:24:33;10.40;;;6.35;;
10056;SDS011;5068;51.286;7.518;2023-01-23T06:26:06;10.30;;;6.03;;
10056;SDS011;5068;51.286;7.518;2023-01-23T06:27:40;10.50;;;5.85;;
10056;SDS011;5068;51.286;7.518;2023-01-23T06:29:13;11.38;;;6.22;;
10056;SDS011;5068;51.286;7.518;2023-01-23T06:30:47;11.65;;;6.38;;
10056;SDS011;5068;51.286;7.518;2023-01-23T06:32:30;10.75;;;5.95;;
10056;SDS011;5068;51.286;7.518;2023-01-23T06:34:05;10.55;;;6.50;;
10056;SDS011;5068;51.286;7.518;2023-01-23T06:35:45;10.38;;;6.28;;
10056;SDS011;5068;51.286;7.518;2023-01-23T06:37:18;13.13;;;7.20;;
10056;SDS011;5068;51.286;7.518;2023-01-23T06:38:52;12.00;;;6.60;;
10056;SDS011;5068;51.286;7.518;2023-01-23T06:40:30;13.02;;;6.60;;
10056;SDS011;5068;51.286;7.518;2023-01-23T06:42:23;12.48;;;6.57;;
10056;SDS011;5068;51.286;7.518;2023-01-23T06:43:57;12.23;;;7.30;;
10056;SDS011;5068;51.286;7.518;2023-01-23T06:45:31;11.15;;;6.28;;
10056;SDS011;5068;51.286;7.518;2023-01-23T06:47:04;11.20;;;6.13;;
10056;SDS011;5068;51.286;7.518;2023-01-23T06:48:38;11.68;;;6.97;;
10056;SDS011;5068;51.286;7.518;2023-01-23T06:50:13;13.25;;;6.65;;
10056;SDS011;5068;51.286;7.518;2023-01-23T06:51:49;12.32;;;7.07;;
10056;SDS011;5068;51.286;7.518;2023-01-23T06:53:22;12.77;;;7.25;;
10056;SDS011;5068;51.286;7.518;2023-01-23T06:54:56;13.00;;;6.88;;
10056;SDS011;5068;51.286;7.518;2023-01-23T06:56:29;12.13;;;6.15;;
10056;SDS011;5068;51.286;7.518;2023-01-23T06:58:06;11.90;;;6.72;;
10056;SDS011;5068;51.286;7.518;2023-01-23T06:59:39;12.20;;;6.43;;
10056;SDS011;5068;51.286;7.518;2023-01-23T07:01:16;12.23;;;6.30;;
10056;SDS011;5068;51.286;7.518;2023-01-23T07:03:22;11.45;;;5.90;;
10056;SDS011;5068;51.286;7.518;2023-01-23T07:04:55;11.50;;;5.80;;
10056;SDS011;5068;51.286;7.518;2023-01-23T07:06:30;11.23;;;5.35;;
10056;SDS011;5068;51.286;7.518;2023-01-23T07:08:04;11.60;;;6.07;;
10056;SDS011;5068;51.286;7.518;2023-01-23T07:09:38;10.68;;;6.05;;
10056;SDS011;5068;51.286;7.518;2023-01-23T07:11:16;10.15;;;5.75;;
10056;SDS011;5068;51.286;7.518;2023-01-23T07:12:49;11.73;;;6.20;;
10056;SDS011;5068;51.286;7.518;2023-01-23T07:14:23;10.38;;;5.78;;
10056;SDS011;5068;51.286;7.518;2023-01-23T07:15:59;10.75;;;6.13;;
10056;SDS011;5068;51.286;7.518;2023-01-23T07:17:34;10.98;;;5.97;;
10056;SDS011;5068;51.286;7.518;2023-01-23T07:19:08;11.43;;;6.20;;
10056;SDS011;5068;51.286;7.518;2023-01-23T07:20:43;12.32;;;6.28;;
10056;SDS011;5068;51.286;7.518;2023-01-23T07:22:17;14.80;;;6.97;;
10056;SDS011;5068;51.286;7.518;2023-01-23T07:23:54;15.90;;;7.40;;
10056;SDS011;5068;51.286;7.518;2023-01-23T07:25:27;13.15;;;6.40;;
10056;SDS011;5068;51.286;7.518;2023-01-23T07:27:00;13.82;;;6.88;;
10056;SDS011;5068;51.286;7.518;2023-01-23T07:28:34;16.60;;;8.02;;
10056;SDS011;5068;51.286;7.518;2023-01-23T07:30:08;16.60;;;8.13;;
10056;SDS011;5068;51.286;7.518;2023-01-23T07:31:43;13.55;;;6.93;;
10056;SDS011;5068;51.286;7.518;2023-01-23T07:33:16;12.88;;;6.82;;
10056;SDS011;5068;51.286;7.518;2023-01-23T07:34:51;18.00;;;7.38;;
10056;SDS011;5068;51.286;7.518;2023-01-23T07:36:24;12.10;;;6.63;;
10056;SDS011;5068;51.286;7.518;2023-01-23T07:37:57;12.82;;;6.30;;
10056;SDS011;5068;51.286;7.518;2023-01-23T07:39:31;14.30;;;7.20;;
10056;SDS011;5068;51.286;7.518;2023-01-23T07:41:04;12.65;;;6.60;;
10056;SDS011;5068;51.286;7.518;2023-01-23T07:42:37;12.98;;;7.07;;
10056;SDS011;5068;51.286;7.518;2023-01-23T07:44:13;13.48;;;7.43;;
10056;SDS011;5068;51.286;7.518;2023-01-23T07:45:50;11.90;;;6.30;;
10056;SDS011;5068;51.286;7.518;2023-01-23T07:47:23;13.25;;;6.65;;
10056;SDS011;5068;51.286;7.518;2023-01-23T07:48:56;12.85;;;6.88;;
10056;SDS011;5068;51.286;7.518;2023-01-23T07:50:31;13.00;;;6.65;;
10056;SDS011;5068;51.286;7.518;2023-01-23T07:52:04;11.85;;;6.60;;
10056;SDS011;5068;51.286;7.518;2023-01-23T07:53:37;12.82;;;6.55;;
10056;SDS011;5068;51.286;7.518;2023-01-23T07:55:11;13.85;;;7.00;;
10056;SDS011;5068;51.286;7.518;2023-01-23T07:56:44;11.57;;;6.07;;
10056;SDS011;5068;51.286;7.518;2023-01-23T07:58:20;12.43;;;5.88;;
10056;SDS011;5068;51.286;7.518;2023-01-23T07:59:54;12.40;;;6.53;;
10056;SDS011;5068;51.286;7.518;2023-01-23T08:01:27;12.18;;;6.53;;
10056;SDS011;5068;51.286;7.518;2023-01-23T08:03:00;12.85;;;7.07;;
10056;SDS011;5068;51.286;7.518;2023-01-23T08:04:34;13.63;;;6.38;;
10056;SDS011;5068;51.286;7.518;2023-01-23T08:06:09;11.02;;;6.20;;
10056;SDS011;5068;51.286;7.518;2023-01-23T08:07:42;12.32;;;6.70;;
10056;SDS011;5068;51.286;7.518;2023-01-23T08:09:15;12.32;;;6.47;;
10056;SDS011;5068;51.286;7.518;2023-01-23T08:10:49;14.05;;;6.55;;
10056;SDS011;5068;51.286;7.518;2023-01-23T08:12:23;13.27;;;7.03;;
10056;SDS011;5068;51.286;7.518;2023-01-23T08:13:56;12.15;;;6.65;;
10056;SDS011;5068;51.286;7.518;2023-01-23T08:15:29;16.65;;;7.18;;
10056;SDS011;5068;51.286;7.518;2023-01-23T08:17:02;13.70;;;6.68;;
10056;SDS011;5068;51.286;7.518;2023-01-23T08:18:36;12.70;;;6.47;;
10056;SDS011;5068;51.286;7.518;2023-01-23T08:20:10;11.55;;;6.38;;
10056;SDS011;5068;51.286;7.518;2023-01-23T08:21:44;12.88;;;6.60;;
10056;SDS011;5068;51.286;7.518;2023-01-23T08:23:18;13.25;;;6.90;;
10056;SDS011;5068;51.286;7.518;2023-01-23T08:24:51;12.55;;;6.63;;
10056;SDS011;5068;51.286;7.518;2023-01-23T08:26:24;11.82;;;6.55;;
10056;SDS011;5068;51.286;7.518;2023-01-23T08:27:58;13.30;;;6.50;;
10056;SDS011;5068;51.286;7.518;2023-01-23T08:29:31;12.93;;;6.13;;
10056;SDS011;5068;51.286;7.518;2023-01-23T08:31:06;13.52;;;6.47;;
10056;SDS011;5068;51.286;7.518;2023-01-23T08:32:42;13.20;;;6.75;;
10056;SDS011;5068;51.286;7.518;2023-01-23T08:34:15;13.48;;;6.68;;
10056;SDS011;5068;51.286;7.518;2023-01-23T08:35:49;11.43;;;6.22;;
10056;SDS011;5068;51.286;7.518;2023-01-23T08:37:24;13.20;;;6.70;;
10056;SDS011;5068;51.286;7.518;2023-01-23T08:38:58;13.52;;;6.40;;
10056;SDS011;5068;51.286;7.518;2023-01-23T08:40:31;13.00;;;6.85;;
10056;SDS011;5068;51.286;7.518;2023-01-23T08:42:05;12.00;;;6.10;;
10056;SDS011;5068;51.286;7.518;2023-01-23T08:43:38;15.40;;;6.47;;
10056;SDS011;5068;51.286;7.518;2023-01-23T08:45:13;13.35;;;6.88;;
10056;SDS011;5068;51.286;7.518;2023-01-23T08:46:47;13.13;;;6.65;;
10056;SDS011;5068;51.286;7.518;2023-01-23T08:48:20;11.55;;;6.22;;
10056;SDS011;5068;51.286;7.518;2023-01-23T08:49:56;11.63;;;6.13;;
10056;SDS011;5068;51.286;7.518;2023-01-23T08:51:29;11.93;;;6.82;;
10056;SDS011;5068;51.286;7.518;2023-01-23T08:53:04;11.07;;;5.75;;
10056;SDS011;5068;51.286;7.518;2023-01-23T08:56:14;11.55;;;5.88;;
10056;SDS011;5068;51.286;7.518;2023-01-23T08:57:50;12.88;;;6.53;;
10056;SDS011;5068;51.286;7.518;2023-01-23T08:59:23;12.63;;;6.43;;
10056;SDS011;5068;51.286;7.518;2023-01-23T09:00:57;12.40;;;5.75;;
10056;SDS011;5068;51.286;7.518;2023-01-23T09:02:30;12.40;;;6.65;;
10056;SDS011;5068;51.286;7.518;2023-01-23T09:04:04;11.00;;;6.20;;
10056;SDS011;5068;51.286;7.518;2023-01-23T09:05:37;12.18;;;6.10;;
10056;SDS011;5068;51.286;7.518;2023-01-23T09:07:11;12.90;;;6.72;;
10056;SDS011;5068;51.286;7.518;2023-01-23T09:08:45;13.98;;;6.45;;
10056;SDS011;5068;51.286;7.518;2023-01-23T09:10:19;19.05;;;6.50;;
10056;SDS011;5068;51.286;7.518;2023-01-23T09:11:53;13.30;;;6.90;;
10056;SDS011;5068;51.286;7.518;2023-01-23T09:13:27;13.98;;;6.93;;
10056;SDS011;5068;51.286;7.518;2023-01-23T09:15:02;14.85;;;6.57;;
10056;SDS011;5068;51.286;7.518;2023-01-23T09:18:11;16.75;;;6.95;;
10056;SDS011;5068;51.286;7.518;2023-01-23T09:19:44;15.48;;;6.10;;
10056;SDS011;5068;51.286;7.518;2023-01-23T09:21:17;17.38;;;6.70;;
10056;SDS011;5068;51.286;7.518;2023-01-23T09:22:51;13.70;;;6.60;;
10056;SDS011;5068;51.286;7.518;2023-01-23T09:24:25;14.77;;;6.30;;
10056;SDS011;5068;51.286;7.518;2023-01-23T09:26:01;12.18;;;6.18;;
10056;SDS011;5068;51.286;7.518;2023-01-23T09:27:35;11.65;;;6.20;;
10056;SDS011;5068;51.286;7.518;2023-01-23T09:29:09;11.82;;;6.97;;
10056;SDS011;5068;51.286;7.518;2023-01-23T09:30:42;12.73;;;6.90;;
10056;SDS011;5068;51.286;7.518;2023-01-23T09:32:15;12.80;;;6.53;;
10056;SDS011;5068;51.286;7.518;2023-01-23T09:33:49;12.63;;;6.97;;
10056;SDS011;5068;51.286;7.518;2023-01-23T09:35:22;16.83;;;7.80;;
10056;SDS011;5068;51.286;7.518;2023-01-23T09:36:56;14.10;;;6.40;;
10056;SDS011;5068;51.286;7.518;2023-01-23T09:38:29;14.50;;;6.88;;
10056;SDS011;5068;51.286;7.518;2023-01-23T09:41:48;11.40;;;6.13;;
10056;SDS011;5068;51.286;7.518;2023-01-23T09:43:22;9.40;;;5.72;;
10056;SDS011;5068;51.286;7.518;2023-01-23T09:45:08;10.80;;;5.90;;
10056;SDS011;5068;51.286;7.518;2023-01-23T09:46:50;11.88;;;6.68;;
10056;SDS011;5068;51.286;7.518;2023-01-23T09:48:31;11.20;;;6.70;;